createdAt,value
2023-05-19T00:00:51.559Z,0.80
2023-05-19T00:01:54.979Z,0.70
2023-05-19T00:02:57.439Z,0.90
2023-05-19T00:04:05.106Z,0.80
2023-05-19T00:05:07.905Z,1.00
2023-05-19T00:06:10.139Z,0.93
2023-05-19T00:07:13.639Z,0.80
2023-05-19T00:08:20.238Z,0.80
2023-05-19T00:09:22.475Z,0.77
2023-05-19T00:10:24.938Z,0.60
2023-05-19T00:11:28.375Z,0.83
2023-05-19T00:12:30.959Z,0.90
2023-05-19T00:13:33.475Z,0.90
2023-05-19T00:14:36.058Z,0.73
2023-05-19T00:15:38.527Z,0.77
2023-05-19T00:16:42.269Z,0.87
2023-05-19T00:17:44.192Z,0.73
2023-05-19T00:18:47.559Z,0.63
2023-05-19T00:19:49.987Z,0.70
2023-05-19T00:20:52.398Z,0.80
2023-05-19T00:21:54.246Z,0.90
2023-05-19T00:22:56.130Z,0.73
2023-05-19T00:23:58.933Z,0.70
2023-05-19T00:25:00.888Z,0.90
2023-05-19T00:26:02.789Z,0.70
2023-05-19T00:27:04.793Z,0.70
2023-05-19T00:28:07.252Z,0.67
2023-05-19T00:29:09.209Z,0.70
2023-05-19T00:30:11.545Z,0.60
2023-05-19T00:31:13.581Z,0.80
2023-05-19T00:32:15.939Z,0.60
2023-05-19T00:33:17.871Z,0.80
2023-05-19T00:34:19.754Z,0.70
2023-05-19T00:35:22.903Z,0.93
2023-05-19T00:36:25.056Z,0.90
2023-05-19T00:37:27.695Z,0.80
2023-05-19T00:38:35.934Z,0.73
2023-05-19T00:39:37.804Z,0.60
2023-05-19T00:40:39.958Z,0.93
2023-05-19T00:41:41.890Z,0.80
2023-05-19T00:42:43.768Z,0.50
2023-05-19T00:43:45.966Z,0.80
2023-05-19T00:44:47.903Z,0.87
2023-05-19T00:45:50.442Z,0.70
2023-05-19T00:46:52.396Z,0.70
2023-05-19T00:47:54.473Z,0.70
2023-05-19T00:48:56.423Z,0.70
2023-05-19T00:49:58.404Z,0.87
2023-05-19T00:51:05.169Z,0.77
2023-05-19T00:52:07.634Z,0.57
2023-05-19T00:53:09.815Z,0.80
2023-05-19T00:54:11.780Z,0.80
2023-05-19T00:55:14.887Z,0.73
2023-05-19T00:56:18.307Z,0.70
2023-05-19T00:57:21.280Z,0.60
2023-05-19T00:58:25.676Z,0.80
2023-05-19T00:59:28.046Z,0.70
2023-05-19T01:00:31.361Z,0.63
2023-05-19T01:01:33.435Z,0.80
2023-05-19T01:02:38.189Z,0.70
2023-05-19T01:03:40.936Z,0.77
2023-05-19T01:04:45.049Z,1.00
2023-05-19T01:05:47.638Z,0.80
2023-05-19T01:06:54.849Z,1.00
2023-05-19T01:07:56.796Z,0.80
2023-05-19T01:08:58.904Z,0.70
2023-05-19T01:10:00.915Z,0.80
2023-05-19T01:11:03.797Z,0.63
2023-05-19T01:12:06.208Z,0.50
2023-05-19T01:13:09.477Z,0.60
2023-05-19T01:14:11.367Z,0.83
2023-05-19T01:15:14.075Z,0.80
2023-05-19T01:16:25.570Z,0.70
2023-05-19T01:17:35.524Z,0.63
2023-05-19T01:19:25.454Z,0.57
2023-05-19T01:20:46.234Z,0.70
2023-05-19T01:22:03.250Z,0.50
2023-05-19T01:23:40.107Z,0.87
2023-05-19T01:25:19.964Z,0.63
2023-05-19T01:26:49.404Z,0.80
2023-05-19T01:28:09.445Z,0.63
2023-05-19T01:30:09.251Z,0.63
2023-05-19T01:31:12.877Z,0.77
2023-05-19T01:32:21.081Z,0.80
2023-05-19T01:33:24.786Z,0.70
2023-05-19T01:34:27.953Z,0.70
2023-05-19T01:35:32.942Z,0.87
2023-05-19T01:36:37.096Z,0.70
2023-05-19T01:37:41.179Z,0.70
2023-05-19T01:38:45.739Z,0.60
2023-05-19T01:39:50.374Z,0.70
2023-05-19T01:40:54.213Z,0.60
2023-05-19T01:41:58.165Z,0.60
2023-05-19T01:43:02.385Z,0.77
2023-05-19T01:44:05.513Z,0.67
2023-05-19T01:45:12.109Z,0.67
2023-05-19T01:46:15.674Z,0.67
2023-05-19T01:47:18.391Z,0.60
2023-05-19T01:48:20.884Z,0.60
2023-05-19T01:49:22.819Z,0.87
2023-05-19T01:50:25.080Z,0.77
2023-05-19T01:51:27.863Z,0.60
2023-05-19T01:52:29.937Z,0.67
2023-05-19T01:53:31.922Z,0.70
2023-05-19T01:54:33.841Z,0.70
2023-05-19T01:55:45.431Z,0.50
2023-05-19T01:57:24.060Z,0.90
2023-05-19T01:58:47.255Z,0.60
2023-05-19T02:00:10.607Z,0.60
2023-05-19T02:01:36.627Z,0.50
2023-05-19T02:03:03.687Z,0.50
2023-05-19T02:04:23.399Z,0.50
2023-05-19T02:05:40.046Z,0.50
2023-05-19T02:07:15.642Z,0.60
2023-05-19T02:08:29.217Z,0.60
2023-05-19T02:09:54.124Z,0.63
2023-05-19T02:11:04.033Z,0.37
2023-05-19T02:12:19.491Z,0.43
2023-05-19T02:13:30.134Z,0.60
2023-05-19T02:14:45.532Z,0.80
2023-05-19T02:15:50.943Z,0.70
2023-05-19T02:16:53.864Z,0.60
2023-05-19T02:18:00.326Z,0.60
2023-05-19T02:19:02.335Z,0.50
2023-05-19T02:20:05.799Z,0.60
2023-05-19T02:21:13.116Z,0.43
2023-05-19T02:22:15.239Z,0.57
2023-05-19T02:23:17.152Z,0.70
2023-05-19T02:24:20.188Z,0.60
2023-05-19T02:25:23.423Z,0.63
2023-05-19T02:26:26.129Z,0.60
2023-05-19T02:27:28.144Z,0.40
2023-05-19T02:28:30.119Z,0.40
2023-05-19T02:29:32.066Z,0.53
2023-05-19T02:30:34.177Z,0.40
2023-05-19T02:31:36.232Z,0.50
2023-05-19T02:32:38.126Z,0.50
2023-05-19T02:33:40.046Z,0.40
2023-05-19T02:34:45.616Z,0.70
2023-05-19T02:35:47.551Z,0.43
2023-05-19T02:36:49.982Z,0.50
2023-05-19T02:37:51.879Z,0.43
2023-05-19T02:38:53.845Z,0.60
2023-05-19T02:39:56.142Z,0.70
2023-05-19T02:40:58.592Z,0.63
2023-05-19T02:42:00.849Z,0.70
2023-05-19T02:43:03.397Z,0.80
2023-05-19T02:44:05.742Z,0.67
2023-05-19T02:45:08.354Z,0.60
2023-05-19T02:46:10.256Z,0.40
2023-05-19T02:47:13.132Z,0.63
2023-05-19T02:48:15.081Z,0.43
2023-05-19T02:49:16.980Z,0.70
2023-05-19T02:50:18.945Z,0.60
2023-05-19T02:51:20.784Z,0.50
2023-05-19T02:52:22.751Z,0.60
2023-05-19T02:53:24.629Z,0.60
2023-05-19T02:54:26.531Z,0.40
2023-05-19T02:55:28.810Z,0.50
2023-05-19T02:56:30.693Z,0.80
2023-05-19T02:57:34.988Z,0.63
2023-05-19T02:58:36.958Z,0.50
2023-05-19T02:59:38.867Z,0.50
2023-05-19T03:00:40.764Z,0.57
2023-05-19T03:01:42.708Z,0.50
2023-05-19T03:02:44.835Z,0.50
2023-05-19T03:03:46.989Z,0.60
2023-05-19T03:04:49.000Z,0.60
2023-05-19T03:05:50.838Z,0.60
2023-05-19T03:06:54.085Z,0.60
2023-05-19T03:07:56.225Z,0.57
2023-05-19T03:08:58.432Z,0.60
2023-05-19T03:10:03.749Z,0.60
2023-05-19T03:11:05.861Z,0.70
2023-05-19T03:12:08.158Z,0.53
2023-05-19T03:13:10.096Z,0.53
2023-05-19T03:14:13.695Z,0.50
2023-05-19T03:15:16.407Z,0.73
2023-05-19T03:16:19.037Z,0.50
2023-05-19T03:17:21.153Z,0.60
2023-05-19T03:18:24.650Z,0.70
2023-05-19T03:19:27.679Z,0.40
2023-05-19T03:20:30.576Z,0.70
2023-05-19T03:21:34.477Z,0.70
2023-05-19T03:22:36.841Z,0.50
2023-05-19T03:23:38.683Z,0.70
2023-05-19T03:24:40.648Z,0.70
2023-05-19T03:25:42.536Z,0.37
2023-05-19T03:26:44.424Z,0.43
2023-05-19T03:27:46.289Z,0.50
2023-05-19T03:28:48.153Z,0.50
2023-05-19T03:29:50.718Z,0.60
2023-05-19T03:30:52.924Z,0.50
2023-05-19T03:31:54.805Z,0.50
2023-05-19T03:32:56.788Z,0.60
2023-05-19T03:33:58.678Z,0.50
2023-05-19T03:35:00.791Z,0.40
2023-05-19T03:36:04.034Z,0.60
2023-05-19T03:37:05.904Z,0.60
2023-05-19T03:38:07.830Z,0.53
2023-05-19T03:39:09.741Z,0.57
2023-05-19T03:40:12.367Z,0.50
2023-05-19T03:41:14.228Z,0.50
2023-05-19T03:42:16.281Z,0.40
2023-05-19T03:43:18.443Z,0.53
2023-05-19T03:44:20.325Z,0.30
2023-05-19T03:45:22.149Z,0.40
2023-05-19T03:46:24.157Z,0.60
2023-05-19T03:47:26.146Z,0.60
2023-05-19T03:48:28.064Z,0.60
2023-05-19T03:49:29.926Z,0.70
2023-05-19T03:50:31.976Z,0.37
2023-05-19T03:51:34.827Z,0.50
2023-05-19T03:52:36.697Z,0.57
2023-05-19T03:53:38.827Z,0.60
2023-05-19T03:54:42.640Z,0.40
2023-05-19T03:55:44.787Z,0.70
2023-05-19T03:56:46.656Z,0.50
2023-05-19T03:57:48.789Z,0.63
2023-05-19T03:58:50.748Z,0.50
2023-05-19T03:59:52.628Z,0.57
2023-05-19T04:00:54.521Z,0.50
2023-05-19T04:01:57.728Z,0.30
2023-05-19T04:03:00.613Z,0.73
2023-05-19T04:04:03.359Z,0.40
2023-05-19T04:05:05.599Z,0.40
2023-05-19T04:06:08.202Z,0.30
2023-05-19T04:07:10.094Z,0.60
2023-05-19T04:08:12.060Z,0.37
2023-05-19T04:09:16.101Z,0.60
2023-05-19T04:10:19.057Z,0.60
2023-05-19T04:11:21.452Z,0.50
2023-05-19T04:12:23.685Z,0.37
2023-05-19T04:13:25.710Z,0.50
2023-05-19T04:14:27.556Z,0.70
2023-05-19T04:15:29.633Z,0.63
2023-05-19T04:16:31.789Z,0.50
2023-05-19T04:17:33.907Z,0.40
2023-05-19T04:18:35.930Z,0.60
2023-05-19T04:19:37.890Z,0.47
2023-05-19T04:20:39.778Z,0.57
2023-05-19T04:21:41.737Z,0.70
2023-05-19T04:22:43.750Z,0.50
2023-05-19T04:23:45.652Z,0.47
2023-05-19T04:24:48.647Z,0.43
2023-05-19T04:25:50.804Z,0.50
2023-05-19T04:26:53.664Z,0.50
2023-05-19T04:27:57.861Z,0.57
2023-05-19T04:29:01.831Z,0.80
2023-05-19T04:30:05.689Z,0.73
2023-05-19T04:31:11.183Z,0.53
2023-05-19T04:32:17.712Z,0.80
2023-05-19T04:33:20.109Z,0.50
2023-05-19T04:34:22.308Z,0.40
2023-05-19T04:35:24.752Z,0.70
2023-05-19T04:36:27.572Z,0.67
2023-05-19T04:37:29.977Z,0.50
2023-05-19T04:38:31.903Z,0.47
2023-05-19T04:39:33.817Z,0.77
2023-05-19T04:40:35.905Z,0.53
2023-05-19T04:41:40.396Z,0.47
2023-05-19T04:42:42.813Z,0.50
2023-05-19T04:43:44.820Z,0.60
2023-05-19T04:44:49.261Z,0.40
2023-05-19T04:45:51.515Z,0.60
2023-05-19T04:46:54.358Z,0.50
2023-05-19T04:47:58.155Z,0.50
2023-05-19T04:49:01.370Z,0.50
2023-05-19T04:50:05.184Z,0.60
2023-05-19T04:51:07.510Z,0.70
2023-05-19T04:52:11.684Z,0.60
2023-05-19T04:53:13.621Z,0.50
2023-05-19T04:54:15.823Z,0.50
2023-05-19T04:55:17.737Z,0.50
2023-05-19T04:56:19.659Z,0.50
2023-05-19T04:57:21.600Z,0.40
2023-05-19T04:58:26.551Z,0.50
2023-05-19T04:59:28.468Z,0.60
2023-05-19T05:00:30.356Z,0.50
2023-05-19T05:01:33.003Z,0.60
2023-05-19T05:02:35.194Z,0.40
2023-05-19T05:03:37.316Z,0.40
2023-05-19T05:04:42.694Z,0.43
2023-05-19T05:05:44.735Z,0.50
2023-05-19T05:06:48.015Z,0.50
2023-05-19T05:07:50.282Z,0.40
2023-05-19T05:08:53.077Z,0.50
2023-05-19T05:09:55.007Z,0.40
2023-05-19T05:10:57.439Z,0.73
2023-05-19T05:11:59.939Z,0.80
2023-05-19T05:13:02.180Z,0.63
2023-05-19T05:14:04.435Z,0.53
2023-05-19T05:15:07.518Z,0.50
2023-05-19T05:16:10.416Z,0.47
2023-05-19T05:17:13.650Z,0.40
2023-05-19T05:18:16.611Z,0.53
2023-05-19T05:19:19.194Z,0.60
2023-05-19T05:20:22.505Z,0.50
2023-05-19T05:21:24.935Z,0.50
2023-05-19T05:22:27.294Z,0.60
2023-05-19T05:23:29.581Z,0.60
2023-05-19T05:24:31.983Z,0.57
2023-05-19T05:25:34.574Z,0.43
2023-05-19T05:26:37.048Z,0.50
2023-05-19T05:27:38.985Z,0.50
2023-05-19T05:28:41.979Z,0.50
2023-05-19T05:29:43.938Z,0.30
2023-05-19T05:30:46.346Z,0.50
2023-05-19T05:31:48.198Z,0.50
2023-05-19T05:32:50.376Z,0.70
2023-05-19T05:33:52.555Z,0.53
2023-05-19T05:34:54.631Z,0.60
2023-05-19T05:35:56.543Z,0.40
2023-05-19T05:36:58.493Z,0.53
2023-05-19T05:38:01.630Z,0.50
2023-05-19T05:39:03.882Z,0.67
2023-05-19T05:40:07.132Z,0.53
2023-05-19T05:41:09.072Z,0.50
2023-05-19T05:42:11.266Z,0.60
2023-05-19T05:43:13.214Z,0.40
2023-05-19T05:44:15.060Z,0.60
2023-05-19T05:45:17.126Z,0.60
2023-05-19T05:46:19.033Z,0.70
2023-05-19T05:47:21.470Z,0.60
2023-05-19T05:48:23.885Z,0.67
2023-05-19T05:49:26.535Z,0.40
2023-05-19T05:50:28.840Z,0.60
2023-05-19T05:51:32.932Z,0.50
2023-05-19T05:52:37.580Z,0.50
2023-05-19T05:53:43.292Z,0.50
2023-05-19T05:54:46.282Z,0.60
2023-05-19T05:55:48.956Z,0.60
2023-05-19T05:56:51.255Z,0.60
2023-05-19T05:57:53.275Z,0.50
2023-05-19T05:58:55.264Z,0.50
2023-05-19T05:59:57.557Z,0.43
2023-05-19T06:00:59.732Z,0.50
2023-05-19T06:02:01.903Z,0.60
2023-05-19T06:03:04.604Z,0.70
2023-05-19T06:04:06.578Z,0.60
2023-05-19T06:05:12.378Z,0.67
2023-05-19T06:06:14.516Z,0.60
2023-05-19T06:07:16.377Z,0.60
2023-05-19T06:08:18.274Z,0.50
2023-05-19T06:09:20.210Z,0.80
2023-05-19T06:10:22.363Z,0.63
2023-05-19T06:11:24.988Z,0.83
2023-05-19T06:12:27.258Z,0.60
2023-05-19T06:13:29.063Z,0.80
2023-05-19T06:14:30.989Z,0.60
2023-05-19T06:15:32.928Z,1.00
2023-05-19T06:16:34.904Z,0.87
2023-05-19T06:17:36.996Z,1.07
2023-05-19T06:18:38.992Z,1.27
2023-05-19T06:19:41.057Z,0.73
2023-05-19T06:20:43.038Z,1.20
2023-05-19T06:21:45.075Z,0.70
2023-05-19T06:22:47.339Z,1.20
2023-05-19T06:23:49.194Z,0.97
2023-05-19T06:24:52.323Z,0.63
2023-05-19T06:25:54.183Z,0.77
2023-05-19T06:26:56.034Z,0.73
2023-05-19T06:27:58.064Z,0.83
2023-05-19T06:28:59.948Z,0.90
2023-05-19T06:30:02.254Z,0.83
2023-05-19T06:31:04.246Z,1.07
2023-05-19T06:32:06.179Z,0.67
2023-05-19T06:33:08.251Z,0.97
2023-05-19T06:34:12.282Z,0.80
2023-05-19T06:35:16.164Z,0.73
2023-05-19T06:36:18.042Z,0.90
2023-05-19T06:37:23.792Z,0.90
2023-05-19T06:38:25.872Z,0.70
2023-05-19T06:39:27.960Z,1.00
2023-05-19T06:40:29.964Z,0.70
2023-05-19T06:41:31.872Z,0.87
2023-05-19T06:42:34.076Z,0.60
2023-05-19T06:43:35.979Z,0.70
2023-05-19T06:44:37.872Z,0.70
2023-05-19T06:45:39.832Z,0.80
2023-05-19T06:46:41.892Z,0.87
2023-05-19T06:47:45.053Z,0.80
2023-05-19T06:48:46.990Z,0.87
2023-05-19T06:49:55.349Z,0.87
2023-05-19T06:50:57.645Z,0.60
2023-05-19T06:51:59.541Z,0.60
2023-05-19T06:53:01.832Z,1.00
2023-05-19T06:54:03.853Z,0.80
2023-05-19T06:55:06.465Z,0.83
2023-05-19T06:56:08.410Z,0.60
2023-05-19T06:57:10.221Z,1.00
2023-05-19T06:58:12.099Z,0.80
2023-05-19T06:59:14.020Z,0.33
2023-05-19T07:00:19.939Z,1.00
2023-05-19T07:01:23.936Z,1.00
2023-05-19T07:02:25.832Z,0.63
2023-05-19T07:03:27.766Z,0.77
2023-05-19T07:04:29.730Z,0.90
2023-05-19T07:05:31.658Z,0.87
2023-05-19T07:06:33.904Z,0.90
2023-05-19T07:07:36.176Z,0.77
2023-05-19T07:08:38.154Z,0.73
2023-05-19T07:09:40.160Z,0.90
2023-05-19T07:10:42.050Z,0.70
2023-05-19T07:11:43.895Z,0.80
2023-05-19T07:12:45.847Z,0.67
2023-05-19T07:13:47.723Z,0.90
2023-05-19T07:14:49.607Z,0.73
2023-05-19T07:15:52.495Z,0.60
2023-05-19T07:16:54.683Z,0.70
2023-05-19T07:17:58.446Z,0.70
2023-05-19T07:19:00.418Z,0.70
2023-05-19T07:20:02.505Z,0.60
2023-05-19T07:21:04.508Z,0.70
2023-05-19T07:22:06.387Z,0.60
2023-05-19T07:23:08.262Z,0.67
2023-05-19T07:24:10.111Z,0.60
2023-05-19T07:25:12.002Z,0.60
2023-05-19T07:26:13.810Z,0.80
2023-05-19T07:27:15.671Z,0.60
2023-05-19T07:28:17.534Z,0.67
2023-05-19T07:29:19.458Z,0.80
2023-05-19T07:30:21.404Z,1.00
2023-05-19T07:31:23.459Z,0.80
2023-05-19T07:32:25.936Z,0.73
2023-05-19T07:33:27.950Z,0.50
2023-05-19T07:34:29.811Z,0.90
2023-05-19T07:35:31.711Z,0.33
2023-05-19T07:36:34.188Z,0.40
2023-05-19T07:37:36.155Z,0.50
2023-05-19T07:38:38.346Z,0.83
2023-05-19T07:39:40.292Z,0.70
2023-05-19T07:40:42.238Z,0.80
2023-05-19T07:41:44.302Z,0.70
2023-05-19T07:42:46.296Z,0.60
2023-05-19T07:43:48.279Z,0.60
2023-05-19T07:44:50.161Z,0.70
2023-05-19T07:45:53.512Z,0.70
2023-05-19T07:46:55.552Z,0.70
2023-05-19T07:47:57.480Z,0.60
2023-05-19T07:48:59.375Z,0.70
2023-05-19T07:50:01.376Z,0.50
2023-05-19T07:51:03.498Z,0.80
2023-05-19T07:52:05.715Z,0.50
2023-05-19T07:53:07.616Z,0.70
2023-05-19T07:54:09.596Z,0.57
2023-05-19T07:55:11.722Z,0.80
2023-05-19T07:56:13.590Z,0.70
2023-05-19T07:57:16.050Z,0.70
2023-05-19T07:58:18.058Z,0.50
2023-05-19T07:59:19.944Z,0.60
2023-05-19T08:00:21.885Z,0.80
2023-05-19T08:01:23.749Z,0.50
2023-05-19T08:02:25.805Z,0.60
2023-05-19T08:03:28.145Z,0.57
2023-05-19T08:04:30.186Z,0.73
2023-05-19T08:05:32.142Z,0.57
2023-05-19T08:06:35.180Z,0.60
2023-05-19T08:07:37.158Z,0.60
2023-05-19T08:08:39.416Z,0.70
2023-05-19T08:09:41.345Z,0.60
2023-05-19T08:10:43.645Z,0.60
2023-05-19T08:11:46.934Z,0.83
2023-05-19T08:12:48.830Z,0.70
2023-05-19T08:13:50.882Z,0.67
2023-05-19T08:14:52.783Z,1.00
2023-05-19T08:15:59.582Z,0.53
2023-05-19T08:17:01.960Z,0.63
2023-05-19T08:18:05.471Z,0.80
2023-05-19T08:19:07.625Z,0.50
2023-05-19T08:20:10.365Z,0.63
2023-05-19T08:21:12.255Z,0.50
2023-05-19T08:22:14.119Z,0.50
2023-05-19T08:23:15.970Z,0.77
2023-05-19T08:24:17.946Z,0.70
2023-05-19T08:25:20.008Z,0.80
2023-05-19T08:26:21.874Z,0.50
2023-05-19T08:27:24.264Z,0.73
2023-05-19T08:28:26.194Z,0.60
2023-05-19T08:29:28.245Z,0.63
2023-05-19T08:30:30.174Z,0.70
2023-05-19T08:31:32.592Z,0.53
2023-05-19T08:32:34.579Z,0.47
2023-05-19T08:33:36.515Z,0.50
2023-05-19T08:34:39.468Z,0.80
2023-05-19T08:35:41.443Z,0.70
2023-05-19T08:36:45.307Z,0.50
2023-05-19T08:37:47.633Z,0.60
2023-05-19T08:38:49.521Z,0.50
2023-05-19T08:39:51.396Z,0.40
2023-05-19T08:40:53.503Z,0.50
2023-05-19T08:41:55.800Z,0.60
2023-05-19T08:42:58.266Z,0.90
2023-05-19T08:44:00.375Z,0.50
2023-05-19T08:45:03.220Z,0.53
2023-05-19T08:46:06.975Z,0.60
2023-05-19T08:47:14.214Z,0.40
2023-05-19T08:48:19.321Z,0.50
2023-05-19T08:49:30.387Z,0.60
2023-05-19T08:50:41.981Z,0.80
2023-05-19T08:52:32.796Z,0.60
2023-05-19T08:53:43.931Z,0.60
2023-05-19T08:55:06.350Z,0.30
2023-05-19T08:56:16.398Z,0.50
2023-05-19T08:57:19.060Z,0.50
2023-05-19T08:58:22.647Z,0.53
2023-05-19T08:59:24.642Z,0.40
2023-05-19T09:00:27.031Z,0.43
2023-05-19T09:01:30.406Z,0.50
2023-05-19T09:02:33.539Z,0.53
2023-05-19T09:03:39.386Z,0.50
2023-05-19T09:04:45.845Z,0.57
2023-05-19T09:05:48.959Z,0.47
2023-05-19T09:06:51.507Z,0.30
2023-05-19T09:07:53.508Z,0.57
2023-05-19T09:08:55.417Z,0.47
2023-05-19T09:09:57.263Z,0.70
2023-05-19T09:11:02.791Z,0.47
2023-05-19T09:12:04.876Z,0.50
2023-05-19T09:13:06.846Z,0.40
2023-05-19T09:14:08.676Z,0.60
2023-05-19T09:15:12.742Z,0.50
2023-05-19T09:16:14.772Z,0.50
2023-05-19T09:17:18.630Z,0.50
2023-05-19T09:18:20.841Z,0.60
2023-05-19T09:19:22.917Z,0.70
2023-05-19T09:20:26.490Z,0.50
2023-05-19T09:21:32.608Z,0.47
2023-05-19T09:22:36.467Z,0.43
2023-05-19T09:23:38.420Z,0.60
2023-05-19T09:24:41.470Z,0.47
2023-05-19T09:25:53.970Z,0.50
2023-05-19T09:27:00.433Z,0.60
2023-05-19T09:28:02.713Z,0.50
2023-05-19T09:29:16.462Z,0.60
2023-05-19T09:30:19.732Z,0.53
2023-05-19T09:31:22.485Z,0.80
2023-05-19T09:32:28.061Z,0.50
2023-05-19T09:33:32.461Z,0.70
2023-05-19T09:34:34.341Z,0.70
2023-05-19T09:35:37.111Z,0.50
2023-05-19T09:36:42.147Z,0.70
2023-05-19T09:37:46.307Z,0.33
2023-05-19T09:38:48.191Z,0.40
2023-05-19T09:39:52.626Z,0.40
2023-05-19T09:40:58.390Z,0.60
2023-05-19T09:42:06.244Z,0.50
2023-05-19T09:43:08.605Z,0.60
2023-05-19T09:44:28.817Z,0.60
2023-05-19T09:45:30.813Z,0.40
2023-05-19T09:46:35.847Z,0.43
2023-05-19T09:47:42.118Z,0.50
2023-05-19T09:48:44.124Z,0.30
2023-05-19T09:49:48.901Z,0.40
2023-05-19T09:50:52.831Z,0.33
2023-05-19T09:51:56.701Z,0.30
2023-05-19T09:52:58.890Z,0.40
2023-05-19T09:54:01.457Z,0.30
2023-05-19T09:55:09.738Z,0.30
2023-05-19T09:56:12.417Z,0.50
2023-05-19T09:57:14.281Z,0.30
2023-05-19T09:58:20.509Z,0.30
2023-05-19T09:59:26.160Z,0.30
2023-05-19T10:00:30.700Z,0.40
2023-05-19T10:01:36.717Z,0.50
2023-05-19T10:02:44.080Z,0.40
2023-05-19T10:03:46.328Z,0.57
2023-05-19T10:04:51.819Z,0.30
2023-05-19T10:05:58.039Z,0.50
2023-05-19T10:08:29.987Z,0.50
2023-05-19T10:09:34.164Z,0.40
2023-05-19T10:10:39.240Z,0.40
2023-05-19T10:11:42.048Z,0.40
2023-05-19T10:12:48.882Z,0.30
2023-05-19T10:13:53.893Z,0.53
2023-05-19T10:14:57.086Z,0.50
2023-05-19T10:16:00.788Z,0.40
2023-05-19T10:17:03.890Z,0.40
2023-05-19T10:18:09.612Z,0.30
2023-05-19T10:19:14.195Z,0.40
2023-05-19T10:20:17.796Z,0.40
2023-05-19T10:21:19.705Z,0.50
2023-05-19T10:22:22.289Z,0.60
2023-05-19T10:23:24.284Z,0.70
2023-05-19T10:24:26.754Z,0.50
2023-05-19T10:25:33.041Z,0.60
2023-05-19T10:26:36.191Z,0.60
2023-05-19T10:27:50.071Z,0.63
2023-05-19T10:28:52.678Z,0.40
2023-05-19T10:29:59.085Z,0.53
2023-05-19T10:31:07.548Z,0.70
2023-05-19T10:32:21.095Z,0.47
2023-05-19T10:33:39.490Z,0.50
2023-05-19T10:34:53.452Z,0.40
2023-05-19T10:36:23.038Z,0.67
2023-05-19T10:37:57.683Z,0.60
2023-05-19T10:39:17.112Z,0.60
2023-05-19T10:40:33.669Z,0.70
2023-05-19T10:41:41.427Z,0.73
2023-05-19T10:43:15.603Z,0.57
2023-05-19T10:45:08.418Z,0.47
2023-05-19T10:46:10.534Z,0.53
2023-05-19T10:47:12.745Z,0.60
2023-05-19T10:48:17.200Z,0.50
2023-05-19T10:49:23.159Z,0.40
2023-05-19T10:50:25.848Z,0.70
2023-05-19T10:51:36.082Z,0.50
2023-05-19T10:52:40.402Z,0.50
2023-05-19T10:53:46.568Z,0.80
2023-05-19T10:54:48.959Z,0.60
2023-05-19T10:56:04.400Z,0.47
2023-05-19T10:57:07.095Z,0.40
2023-05-19T10:58:09.096Z,0.50
2023-05-19T10:59:35.013Z,0.57
2023-05-19T11:00:41.177Z,0.60
2023-05-19T11:01:43.391Z,0.80
2023-05-19T11:02:46.044Z,0.60
2023-05-19T11:03:53.221Z,0.60
2023-05-19T11:04:58.407Z,0.70
2023-05-19T11:06:24.961Z,0.60
2023-05-19T11:07:27.231Z,0.60
2023-05-19T11:08:35.146Z,0.73
2023-05-19T11:09:43.508Z,0.60
2023-05-19T11:10:46.427Z,0.80
2023-05-19T11:11:55.269Z,0.90
2023-05-19T11:13:00.795Z,0.70
2023-05-19T11:14:04.453Z,0.60
2023-05-19T11:15:11.552Z,0.70
2023-05-19T11:16:14.079Z,0.70
2023-05-19T11:17:16.386Z,0.57
2023-05-19T11:18:20.365Z,0.57
2023-05-19T11:19:35.384Z,0.70
2023-05-19T11:20:39.495Z,0.70
2023-05-19T11:21:52.662Z,0.53
2023-05-19T11:23:08.116Z,0.60
2023-05-19T11:24:10.446Z,0.90
2023-05-19T11:25:12.310Z,0.60
2023-05-19T11:26:14.231Z,0.80
2023-05-19T11:27:38.108Z,0.93
2023-05-19T11:28:41.094Z,1.10
2023-05-19T11:29:43.353Z,0.87
2023-05-19T11:30:50.912Z,1.10
2023-05-19T11:31:53.080Z,0.87
2023-05-19T11:32:55.590Z,1.10
2023-05-19T11:33:58.237Z,2.00
2023-05-19T11:35:01.000Z,1.10
2023-05-19T11:36:04.292Z,1.20
2023-05-19T11:37:07.620Z,1.03
2023-05-19T11:38:11.505Z,1.30
2023-05-19T11:39:15.257Z,1.20
2023-05-19T11:40:18.505Z,1.50
2023-05-19T11:41:21.215Z,1.20
2023-05-19T11:42:23.927Z,1.40
2023-05-19T11:43:26.600Z,1.10
2023-05-19T11:44:28.511Z,1.20
2023-05-19T11:45:33.003Z,1.30
2023-05-19T11:46:35.630Z,1.20
2023-05-19T11:47:51.653Z,1.50
2023-05-19T11:48:59.820Z,1.60
2023-05-19T11:50:01.874Z,1.50
2023-05-19T11:51:06.477Z,1.33
2023-05-19T11:52:08.609Z,1.70
2023-05-19T11:53:15.139Z,1.40
2023-05-19T11:54:19.178Z,1.63
2023-05-19T11:55:22.213Z,1.70
2023-05-19T11:56:24.205Z,1.60
2023-05-19T11:57:26.380Z,1.47
2023-05-19T11:58:28.315Z,1.90
2023-05-19T11:59:36.429Z,1.50
2023-05-19T12:00:41.029Z,1.57
2023-05-19T12:01:43.119Z,1.40
2023-05-19T12:02:45.245Z,1.93
2023-05-19T12:03:47.551Z,1.20
2023-05-19T12:04:49.710Z,1.00
2023-05-19T12:05:53.761Z,1.37
2023-05-19T12:06:55.774Z,1.60
2023-05-19T12:07:58.263Z,1.60
2023-05-19T12:09:00.955Z,1.70
2023-05-19T12:10:03.838Z,1.90
2023-05-19T12:11:06.560Z,1.87
2023-05-19T12:12:08.603Z,1.80
2023-05-19T12:13:11.322Z,1.70
2023-05-19T12:14:13.262Z,2.20
2023-05-19T12:15:16.626Z,1.73
2023-05-19T12:16:21.124Z,1.87
2023-05-19T12:17:25.964Z,2.03
2023-05-19T12:18:33.779Z,1.50
2023-05-19T12:19:35.751Z,1.60
2023-05-19T12:20:37.969Z,1.30
2023-05-19T12:21:40.964Z,1.70
2023-05-19T12:22:44.081Z,1.50
2023-05-19T12:23:46.234Z,1.80
2023-05-19T12:24:49.415Z,1.53
2023-05-19T12:25:51.774Z,1.97
2023-05-19T12:27:14.079Z,1.30
2023-05-19T12:28:16.731Z,1.80
2023-05-19T12:29:18.588Z,1.87
2023-05-19T12:30:29.544Z,1.40
2023-05-19T12:31:31.639Z,1.90
2023-05-19T12:32:37.846Z,1.70
2023-05-19T12:33:40.166Z,1.27
2023-05-19T12:34:42.660Z,1.47
2023-05-19T12:35:47.923Z,1.90
2023-05-19T12:36:50.197Z,1.30
2023-05-19T12:37:52.260Z,1.60
2023-05-19T12:38:55.643Z,1.80
2023-05-19T12:39:57.885Z,1.20
2023-05-19T12:41:00.195Z,1.50
2023-05-19T12:42:08.784Z,1.60
2023-05-19T12:43:23.524Z,1.57
2023-05-19T12:44:25.629Z,1.70
2023-05-19T12:45:28.698Z,1.13
2023-05-19T12:46:33.382Z,1.50
2023-05-19T12:47:36.658Z,1.60
2023-05-19T12:48:46.027Z,1.63
2023-05-19T12:50:00.811Z,1.70
2023-05-19T12:51:02.746Z,1.80
2023-05-19T12:52:10.497Z,1.43
2023-05-19T12:53:15.515Z,1.53
2023-05-19T12:54:21.693Z,1.70
2023-05-19T12:55:23.691Z,1.60
2023-05-19T12:56:27.049Z,1.43
2023-05-19T12:57:32.082Z,1.83
2023-05-19T12:58:34.449Z,1.50
2023-05-19T12:59:38.857Z,1.50
2023-05-19T13:00:51.493Z,1.50
2023-05-19T13:01:57.884Z,1.60
2023-05-19T13:03:01.526Z,1.70
2023-05-19T13:04:06.047Z,1.60
2023-05-19T13:05:08.602Z,1.40
2023-05-19T13:06:10.886Z,1.60
2023-05-19T13:07:13.652Z,1.70
2023-05-19T13:08:20.096Z,1.50
2023-05-19T13:09:22.212Z,1.33
2023-05-19T13:10:27.698Z,1.50
2023-05-19T13:11:29.973Z,1.50
2023-05-19T13:12:31.872Z,1.60
2023-05-19T13:13:35.415Z,1.40
2023-05-19T13:14:37.692Z,1.80
2023-05-19T13:15:45.341Z,1.50
2023-05-19T13:16:47.486Z,1.77
2023-05-19T13:17:49.510Z,1.40
2023-05-19T13:18:51.590Z,1.90
2023-05-19T13:19:53.722Z,1.70
2023-05-19T13:20:56.000Z,1.87
2023-05-19T13:21:58.714Z,1.77
2023-05-19T13:23:01.332Z,1.63
2023-05-19T13:24:04.927Z,1.63
2023-05-19T13:25:07.647Z,1.73
2023-05-19T13:26:11.510Z,1.50
2023-05-19T13:27:13.330Z,1.83
2023-05-19T13:28:15.316Z,1.60
2023-05-19T13:29:17.244Z,1.63
2023-05-19T13:30:19.527Z,1.57
2023-05-19T13:31:21.634Z,1.63
2023-05-19T13:32:24.200Z,1.70
2023-05-19T13:33:26.373Z,1.40
2023-05-19T13:34:28.282Z,1.40
2023-05-19T13:35:36.715Z,1.70
2023-05-19T13:36:39.226Z,1.70
2023-05-19T13:37:44.307Z,1.50
2023-05-19T13:38:46.252Z,1.50
2023-05-19T13:39:48.189Z,1.47
2023-05-19T13:40:50.193Z,1.47
2023-05-19T13:41:52.183Z,1.47
2023-05-19T13:42:54.923Z,1.70
2023-05-19T13:44:01.654Z,2.03
2023-05-19T13:45:04.250Z,1.67
2023-05-19T13:46:06.273Z,1.70
2023-05-19T13:47:08.128Z,1.30
2023-05-19T13:48:11.803Z,1.40
2023-05-19T13:49:13.700Z,1.90
2023-05-19T13:50:15.667Z,1.53
2023-05-19T13:51:17.609Z,1.37
2023-05-19T13:52:21.527Z,1.40
2023-05-19T13:53:23.449Z,1.30
2023-05-19T13:54:25.664Z,1.40
2023-05-19T13:55:27.584Z,1.60
2023-05-19T13:56:31.510Z,1.40
2023-05-19T13:57:33.462Z,1.57
2023-05-19T13:58:35.432Z,1.60
2023-05-19T13:59:43.056Z,1.50
2023-05-19T14:00:56.837Z,1.50
2023-05-19T14:01:58.841Z,1.40
2023-05-19T14:03:00.868Z,1.50
2023-05-19T14:04:02.937Z,1.37
2023-05-19T14:05:07.374Z,1.40
2023-05-19T14:06:09.407Z,1.30
2023-05-19T14:07:11.386Z,1.03
2023-05-19T14:08:13.237Z,1.43
2023-05-19T14:09:16.323Z,1.50
2023-05-19T14:10:18.186Z,1.30
2023-05-19T14:11:21.601Z,1.73
2023-05-19T14:12:30.568Z,1.50
2023-05-19T14:13:35.396Z,1.77
2023-05-19T14:14:40.422Z,1.30
2023-05-19T14:15:42.419Z,1.27
2023-05-19T14:16:44.594Z,1.47
2023-05-19T14:17:47.155Z,1.20